Time;durP1;ratioP1;P1;durP2;ratioP2;P2;SDS_P1;SDS_P2;PMS_P1;PMS_P2;Temp;Humidity;BMP_temperature;BMP_pressure;BME280_temperature;BME280_humidity;BME280_pressure;Samples;Min_cycle;Max_cycle;Signal;HPM_P1;HPM_P2
2021/09/22 11:38:52;;;;;;;11.98;7.78;;;19.00;99.90;;;;;;14383091;23;1396904;-68
2021/09/22 11:44:41;;;;;;;15.10;7.47;;;19.10;99.60;;;;;;14322251;23;20628;-68
2021/09/22 11:50:31;;;;;;;12.23;7.80;;;19.20;99.90;;;;;;14285305;23;20494;-68
2021/09/22 11:56:21;;;;;;;13.52;7.72;;;19.40;99.20;;;;;;14290188;23;20087;-68
2021/09/22 12:02:08;;;;;;;12.90;8.25;;;19.60;99.50;;;;;;14315713;23;20500;-68
2021/09/22 12:07:56;;;;;;;13.13;8.45;;;19.70;98.10;;;;;;14315274;23;20035;-68
2021/09/22 12:13:46;;;;;;;9.95;6.20;;;19.80;97.60;;;;;;14315731;23;20423;-68
2021/09/22 12:19:33;;;;;;;11.27;5.50;;;20.00;97.30;;;;;;14350935;23;20150;-67
2021/09/22 12:25:20;;;;;;;12.52;5.57;;;20.10;95.90;;;;;;14366895;23;20023;-67
2021/09/22 12:31:17;;;;;;;11.98;7.50;;;20.30;95.70;;;;;;14375033;23;20027;-67
2021/09/22 12:37:04;;;;;;;6.90;4.80;;;20.40;95.00;;;;;;14353539;23;20031;-67
2021/09/22 12:42:52;;;;;;;7.00;4.53;;;20.60;93.40;;;;;;14212393;23;20023;-68
2021/09/22 12:48:41;;;;;;;7.65;4.80;;;20.70;92.10;;;;;;14275943;23;20106;-68
2021/09/22 12:54:30;;;;;;;7.40;4.72;;;20.80;91.80;;;;;;14266574;23;20037;-68
2021/09/22 13:00:38;;;;;;;6.32;4.47;;;20.90;92.10;;;;;;14255050;23;20479;-68
2021/09/22 13:06:33;;;;;;;7.40;3.70;;;21.00;90.10;;;;;;14262488;23;20028;-68
2021/09/22 13:12:28;;;;;;;9.38;4.25;;;21.20;91.10;;;;;;14248285;23;20477;-67
2021/09/22 13:18:15;;;;;;;6.57;4.20;;;21.40;90.00;;;;;;14327142;23;20362;-67
2021/09/22 13:24:07;;;;;;;6.90;4.22;;;21.60;88.60;;;;;;14298631;23;20573;-66
2021/09/22 13:29:53;;;;;;;7.82;4.28;;;21.70;87.90;;;;;;14301579;23;20395;-67
2021/09/22 13:35:40;;;;;;;8.18;4.55;;;21.90;85.10;;;;;;14292367;23;20908;-66
2021/09/22 13:41:29;;;;;;;11.27;3.58;;;21.90;84.40;;;;;;14270033;23;20034;-65
2021/09/22 13:47:16;;;;;;;7.40;3.63;;;22.10;83.80;;;;;;14272810;23;20047;-68
2021/09/22 13:53:03;;;;;;;8.65;4.07;;;22.10;83.60;;;;;;14271459;23;20370;-67
2021/09/22 13:58:51;;;;;;;7.28;3.97;;;22.20;81.60;;;;;;14306359;23;20772;-68
2021/09/22 14:04:38;;;;;;;7.13;3.97;;;22.30;82.40;;;;;;14291174;23;20037;-68
2021/09/22 14:10:25;;;;;;;131.63;88.30;;;22.40;82.10;;;;;;14286119;23;20024;-69
2021/09/22 14:16:13;;;;;;;8.40;4.13;;;22.40;82.00;;;;;;14221393;23;20562;-70
2021/09/22 14:28:05;;;;;;;11.43;3.95;;;22.60;82.20;;;;;;14233501;23;20078;-69
2021/09/22 14:33:58;;;;;;;25.85;4.70;;;22.70;82.00;;;;;;14279364;23;20396;-69
2021/09/22 14:52:24;;;;;;;4.53;3.30;;;22.60;80.60;;;;;;14204242;23;20020;-70
2021/09/22 15:04:18;;;;;;;9.07;3.35;;;22.70;79.90;;;;;;14345581;23;20035;-69
2021/09/22 15:10:08;;;;;;;8.95;3.60;;;22.80;80.10;;;;;;14323639;23;20422;-69
2021/09/22 15:15:57;;;;;;;5.93;3.28;;;22.80;79.20;;;;;;14264871;23;20095;-69
2021/09/22 15:21:47;;;;;;;8.15;4.03;;;22.80;79.70;;;;;;14321447;23;20024;-69
2021/09/22 15:33:38;;;;;;;5.05;3.20;;;22.80;80.10;;;;;;14302781;23;20024;-70
2021/09/22 15:39:34;;;;;;;11.77;3.40;;;22.80;79.50;;;;;;14301268;23;20052;-69
2021/09/22 15:51:52;;;;;;;8.52;3.83;;;22.80;80.10;;;;;;14216317;23;20041;-70
2021/09/22 15:58:06;;;;;;;33.83;21.25;;;22.80;81.00;;;;;;14277301;23;20015;-67
2021/09/22 16:03:53;;;;;;;13.48;4.40;;;22.80;81.00;;;;;;14241951;23;20024;-67
2021/09/22 16:15:43;;;;;;;6.80;3.70;;;22.80;80.00;;;;;;14301950;23;20016;-67
2021/09/22 16:27:36;;;;;;;10.30;3.50;;;22.80;80.20;;;;;;14355695;23;20019;-67
2021/09/22 16:39:35;;;;;;;7.68;3.70;;;23.00;79.60;;;;;;14225875;23;20030;-66
2021/09/22 16:45:23;;;;;;;4.97;3.10;;;22.90;79.30;;;;;;14256474;23;20110;-66
2021/09/22 16:51:22;;;;;;;7.07;3.50;;;23.50;79.00;;;;;;14293700;23;20032;-67
2021/09/22 16:57:10;;;;;;;8.15;3.60;;;24.40;77.90;;;;;;14317246;23;20102;-67
2021/09/22 17:03:01;;;;;;;4.60;3.65;;;24.00;79.90;;;;;;14297297;23;20038;-67
2021/09/22 17:14:55;;;;;;;9.82;4.28;;;22.40;87.10;;;;;;14304281;23;20020;-66
2021/09/22 17:20:42;;;;;;;5.82;4.00;;;21.80;90.80;;;;;;14294290;23;20028;-65
2021/09/22 17:26:37;;;;;;;7.47;4.03;;;21.20;92.40;;;;;;14296270;23;20055;-65
2021/09/22 17:44:31;;;;;;;9.95;4.13;;;20.30;94.90;;;;;;14326261;23;20034;-66
2021/09/22 17:50:20;;;;;;;5.15;3.78;;;20.10;95.80;;;;;;14326264;23;20027;-65
2021/09/22 17:56:07;;;;;;;7.38;4.55;;;19.80;96.10;;;;;;14363489;23;20031;-66
2021/09/22 18:01:56;;;;;;;9.25;4.35;;;19.60;96.80;;;;;;14286946;23;20115;-69
2021/09/22 18:07:43;;;;;;;7.72;4.22;;;19.40;97.30;;;;;;14327961;23;20105;-70
2021/09/22 18:13:31;;;;;;;10.57;4.65;;;19.20;98.10;;;;;;14330992;23;20118;-68
2021/09/22 18:37:27;;;;;;;8.20;5.13;;;18.50;99.90;;;;;;14371236;23;20436;-66
2021/09/22 18:43:15;;;;;;;11.57;5.22;;;18.50;99.90;;;;;;14394860;23;20036;-66
2021/09/22 18:49:05;;;;;;;12.00;5.13;;;18.40;99.90;;;;;;14419246;23;20027;-66
2021/09/22 18:54:58;;;;;;;7.18;4.95;;;18.40;99.90;;;;;;14412025;23;20436;-66
2021/09/22 19:00:46;;;;;;;8.37;5.20;;;18.30;99.90;;;;;;14364381;23;20034;-66
2021/09/22 19:06:34;;;;;;;10.63;5.32;;;18.30;99.90;;;;;;14384416;23;20026;-66
2021/09/22 19:12:39;;;;;;;9.35;5.40;;;18.20;99.90;;;;;;14446173;23;20022;-66
2021/09/22 19:30:32;;;;;;;7.22;5.03;;;18.10;99.90;;;;;;14414810;23;20357;-67
2021/09/22 19:36:21;;;;;;;7.82;5.60;;;18.10;99.90;;;;;;14398071;23;20360;-67
2021/09/22 19:42:10;;;;;;;14.50;6.78;;;18.00;99.90;;;;;;14345827;23;20031;-67
2021/09/22 19:54:03;;;;;;;7.15;4.95;;;18.00;99.90;;;;;;14369064;23;20027;-67
2021/09/22 19:59:51;;;;;;;13.95;6.00;;;18.00;99.90;;;;;;14438490;23;20038;-67
2021/09/22 20:05:44;;;;;;;9.32;5.63;;;17.90;99.90;;;;;;14379939;23;20664;-67
2021/09/22 20:11:32;;;;;;;11.18;6.00;;;17.90;99.90;;;;;;14390901;23;20163;-67
2021/09/22 20:17:19;;;;;;;9.38;5.75;;;17.80;99.90;;;;;;14333389;23;20027;-67
2021/09/22 20:23:16;;;;;;;10.82;5.72;;;17.80;99.90;;;;;;14383035;23;20053;-67
2021/09/22 20:29:04;;;;;;;14.30;6.28;;;17.80;99.90;;;;;;14396027;23;20034;-67
2021/09/22 20:34:51;;;;;;;15.73;6.30;;;17.80;99.90;;;;;;14411730;23;20037;-67
2021/09/22 20:40:44;;;;;;;15.10;6.65;;;17.80;99.90;;;;;;14359227;23;20109;-67
